Time;durP1;ratioP1;P1;durP2;ratioP2;P2;SDS_P1;SDS_P2;PMS_P1;PMS_P2;Temp;Humidity;BMP_temperature;BMP_pressure;BME280_temperature;BME280_humidity;BME280_pressure;Samples;Min_cycle;Max_cycle;Signal;HPM_P1;HPM_P2
2023/08/20 00:01:32;;;;;;;14.55;7.82;;;17.60;99.90;;;;;;5046091;28;20116;-62
2023/08/20 00:03:58;;;;;;;13.98;8.30;;;17.60;99.90;;;;;;4999809;28;20121;-63
2023/08/20 00:06:24;;;;;;;19.92;8.52;;;17.60;99.90;;;;;;5034059;28;20052;-62
2023/08/20 00:08:50;;;;;;;15.00;7.90;;;17.60;99.90;;;;;;5015734;28;20033;-62
2023/08/20 00:11:16;;;;;;;14.05;7.20;;;17.60;99.90;;;;;;5011600;28;20095;-62
2023/08/20 00:13:42;;;;;;;11.43;7.07;;;17.50;99.90;;;;;;5013646;28;20071;-62
2023/08/20 00:16:09;;;;;;;14.52;7.03;;;17.50;99.90;;;;;;5044506;28;20040;-63
2023/08/20 00:18:34;;;;;;;11.10;6.32;;;17.50;99.90;;;;;;5007584;28;20384;-62
2023/08/20 00:21:00;;;;;;;13.02;6.22;;;17.50;99.90;;;;;;5031858;28;20034;-62
2023/08/20 00:23:31;;;;;;;10.38;5.93;;;17.50;99.90;;;;;;5038839;23;20094;-76
2023/08/20 00:25:58;;;;;;;11.02;5.65;;;17.40;99.90;;;;;;5046077;28;20051;-76
2023/08/20 00:28:26;;;;;;;13.13;5.72;;;17.40;99.90;;;;;;5044039;28;20037;-77
2023/08/20 00:30:55;;;;;;;13.02;6.03;;;17.40;99.90;;;;;;5043137;28;20044;-77
2023/08/20 00:33:21;;;;;;;12.20;5.45;;;17.30;99.90;;;;;;5035839;28;20047;-77
2023/08/20 00:35:47;;;;;;;12.63;5.97;;;17.30;99.90;;;;;;5005142;28;20056;-77
2023/08/20 00:38:14;;;;;;;12.20;5.95;;;17.30;99.90;;;;;;5022304;28;20033;-78
2023/08/20 00:40:44;;;;;;;10.73;5.95;;;17.30;99.90;;;;;;5024327;28;20032;-77
2023/08/20 00:43:09;;;;;;;10.48;6.15;;;17.30;99.90;;;;;;5016344;22;20103;-65
2023/08/20 00:45:36;;;;;;;13.20;6.60;;;17.30;99.90;;;;;;5011535;28;20132;-65
2023/08/20 00:48:02;;;;;;;13.77;6.07;;;17.30;99.90;;;;;;5011468;28;20109;-66
2023/08/20 00:50:28;;;;;;;11.57;5.90;;;17.20;99.90;;;;;;5009831;28;20553;-64
2023/08/20 00:52:54;;;;;;;10.18;5.65;;;17.20;99.90;;;;;;5011203;28;20069;-61
2023/08/20 00:55:20;;;;;;;11.13;6.28;;;17.10;99.90;;;;;;5009337;28;20037;-63
2023/08/20 00:57:45;;;;;;;11.38;5.88;;;17.10;99.90;;;;;;4997356;28;20108;-66
2023/08/20 01:00:12;;;;;;;14.07;7.18;;;17.10;99.90;;;;;;5005403;28;20048;-65
2023/08/20 01:02:38;;;;;;;12.20;6.82;;;17.10;99.90;;;;;;4998908;28;20041;-66
2023/08/20 01:05:07;;;;;;;15.23;6.75;;;17.10;99.90;;;;;;4998276;28;21765;-65
2023/08/20 01:07:56;;;;;;;12.65;6.50;;;17.00;99.90;;;;;;5009427;28;20087;-62
2023/08/20 01:10:39;;;;;;;14.90;6.65;;;17.00;99.90;;;;;;5007301;28;20045;-66
2023/08/20 01:13:05;;;;;;;14.10;6.85;;;17.00;99.90;;;;;;5001181;28;20049;-62
2023/08/20 01:15:31;;;;;;;11.05;6.90;;;17.00;99.90;;;;;;5003389;28;20033;-65
2023/08/20 01:17:57;;;;;;;11.85;7.28;;;17.00;99.90;;;;;;4998806;28;20507;-64
2023/08/20 01:20:27;;;;;;;12.68;7.32;;;17.00;99.90;;;;;;4998953;28;20077;-65
2023/08/20 01:23:08;;;;;;;15.35;7.13;;;17.00;99.90;;;;;;4995491;28;20122;-62
2023/08/20 01:25:56;;;;;;;12.70;6.60;;;17.00;99.90;;;;;;5005950;28;20105;-65
2023/08/20 01:28:27;;;;;;;10.88;6.18;;;17.00;99.90;;;;;;5000475;28;20396;-65
2023/08/20 01:30:56;;;;;;;11.57;6.43;;;16.90;99.90;;;;;;5003842;28;20037;-65
2023/08/20 01:33:24;;;;;;;10.20;7.25;;;16.90;99.90;;;;;;5004022;28;20060;-65
2023/08/20 01:35:50;;;;;;;9.18;6.00;;;16.80;99.90;;;;;;5011788;28;20487;-64
2023/08/20 01:38:16;;;;;;;10.13;5.45;;;16.80;99.90;;;;;;5003670;28;20050;-65
2023/08/20 01:40:41;;;;;;;8.35;5.45;;;16.80;99.90;;;;;;5000398;28;20084;-64
2023/08/20 01:43:07;;;;;;;8.43;5.47;;;16.80;99.90;;;;;;5010365;28;20145;-65
2023/08/20 01:45:32;;;;;;;13.15;6.13;;;16.90;99.90;;;;;;4996387;28;20046;-65
2023/08/20 01:47:58;;;;;;;11.55;6.25;;;16.90;99.90;;;;;;4998079;28;20042;-65
2023/08/20 01:50:24;;;;;;;10.80;6.15;;;16.90;99.90;;;;;;5008399;28;20042;-64
2023/08/20 01:52:49;;;;;;;11.90;6.28;;;16.90;99.90;;;;;;5011640;28;20034;-66
2023/08/20 01:55:15;;;;;;;13.30;6.72;;;16.90;99.90;;;;;;5010462;28;20065;-66
2023/08/20 01:57:41;;;;;;;12.35;6.40;;;16.90;99.90;;;;;;5006814;28;20511;-66
2023/08/20 02:00:08;;;;;;;13.80;6.38;;;16.90;99.90;;;;;;5001304;28;20034;-65
2023/08/20 02:02:34;;;;;;;10.65;6.90;;;16.80;99.90;;;;;;5002891;28;20049;-66
2023/08/20 02:05:00;;;;;;;9.50;6.07;;;16.80;99.90;;;;;;5006191;28;20030;-65
2023/08/20 02:07:26;;;;;;;8.80;5.70;;;16.80;99.90;;;;;;5004388;28;20664;-62
2023/08/20 02:09:51;;;;;;;8.82;5.38;;;16.70;99.90;;;;;;4996934;28;20048;-65
2023/08/20 02:12:18;;;;;;;8.73;5.65;;;16.60;99.90;;;;;;5008428;28;20037;-65
2023/08/20 02:14:43;;;;;;;11.60;5.97;;;16.60;99.90;;;;;;5008934;28;20530;-66
2023/08/20 02:17:09;;;;;;;9.98;6.38;;;16.60;99.90;;;;;;5006571;28;20046;-65
2023/08/20 02:19:35;;;;;;;11.88;6.00;;;16.60;99.90;;;;;;5011005;28;20029;-65
2023/08/20 02:22:00;;;;;;;8.18;6.55;;;16.60;99.90;;;;;;5010841;28;20100;-64
2023/08/20 02:24:26;;;;;;;9.57;5.57;;;16.50;99.90;;;;;;4997081;28;20093;-65
2023/08/20 02:26:52;;;;;;;11.38;6.03;;;16.60;99.90;;;;;;4999200;28;20037;-66
2023/08/20 02:29:18;;;;;;;10.02;6.65;;;16.60;99.90;;;;;;4996164;28;20049;-66
2023/08/20 02:31:44;;;;;;;13.73;7.03;;;16.60;99.90;;;;;;5001853;28;20044;-65
2023/08/20 02:34:09;;;;;;;11.85;6.55;;;16.70;99.90;;;;;;5004992;28;20104;-65
2023/08/20 02:36:35;;;;;;;12.63;6.65;;;16.70;99.90;;;;;;5006977;28;20049;-64
2023/08/20 02:39:00;;;;;;;10.43;6.68;;;16.70;99.90;;;;;;4993633;28;20046;-65
2023/08/20 02:41:26;;;;;;;11.50;6.68;;;16.60;99.90;;;;;;4996740;28;20496;-65
2023/08/20 02:43:52;;;;;;;10.45;6.85;;;16.60;99.90;;;;;;5003958;28;20037;-65
2023/08/20 02:46:17;;;;;;;11.88;7.20;;;16.60;99.90;;;;;;4996883;28;20119;-65
2023/08/20 02:48:43;;;;;;;10.60;7.38;;;16.60;99.90;;;;;;5001597;28;20038;-66
2023/08/20 02:51:08;;;;;;;10.73;6.85;;;16.50;99.90;;;;;;5010221;28;20026;-65
2023/08/20 02:53:34;;;;;;;11.10;6.47;;;16.60;99.90;;;;;;5006257;28;20117;-65
2023/08/20 02:56:00;;;;;;;12.63;7.05;;;16.50;99.90;;;;;;5006373;28;20038;-65
2023/08/20 02:58:25;;;;;;;11.30;7.07;;;16.50;99.90;;;;;;5007725;28;20117;-66
2023/08/20 03:00:51;;;;;;;9.60;6.85;;;16.50;99.90;;;;;;5001846;28;20042;-65
2023/08/20 03:03:17;;;;;;;13.15;7.53;;;16.50;99.90;;;;;;4994781;28;20447;-66
2023/08/20 03:05:42;;;;;;;13.60;7.85;;;16.50;99.90;;;;;;5000813;28;20045;-65
2023/08/20 03:08:08;;;;;;;14.65;8.75;;;16.50;99.90;;;;;;5010262;28;20043;-65
2023/08/20 03:10:34;;;;;;;15.63;9.07;;;16.50;99.90;;;;;;5009751;28;20076;-64
2023/08/20 03:13:01;;;;;;;13.90;9.05;;;16.60;99.90;;;;;;5009013;28;20048;-65
2023/08/20 03:15:28;;;;;;;19.67;8.85;;;16.60;99.90;;;;;;4998258;28;20049;-65
2023/08/20 03:17:54;;;;;;;12.60;8.38;;;16.60;99.90;;;;;;5002631;28;20042;-65
2023/08/20 03:20:19;;;;;;;16.35;9.23;;;16.60;99.90;;;;;;4994123;28;20030;-66
2023/08/20 03:22:45;;;;;;;20.88;8.80;;;16.60;99.90;;;;;;5000505;28;20499;-65
2023/08/20 03:25:11;;;;;;;13.50;8.55;;;16.60;99.90;;;;;;5009026;28;20153;-66
2023/08/20 03:27:36;;;;;;;14.20;9.18;;;16.60;99.90;;;;;;5010193;28;20117;-65
2023/08/20 03:30:03;;;;;;;16.27;9.43;;;16.70;99.90;;;;;;5010009;28;20038;-64
2023/08/20 03:32:29;;;;;;;17.58;9.75;;;16.60;99.90;;;;;;4998754;28;20511;-65
2023/08/20 03:34:55;;;;;;;16.38;9.75;;;16.60;99.90;;;;;;4999633;28;20070;-65
2023/08/20 03:37:22;;;;;;;17.77;10.43;;;16.60;99.90;;;;;;5003939;28;20099;-64
2023/08/20 03:39:48;;;;;;;18.88;10.98;;;16.60;99.90;;;;;;5006965;28;20057;-65
2023/08/20 03:42:13;;;;;;;16.70;10.60;;;16.60;99.90;;;;;;5003492;28;20034;-65
2023/08/20 03:44:39;;;;;;;17.92;10.80;;;16.60;99.90;;;;;;5002644;28;20038;-65
2023/08/20 03:47:05;;;;;;;21.30;10.95;;;16.60;99.90;;;;;;5005529;28;20117;-66
2023/08/20 03:49:31;;;;;;;15.45;10.75;;;16.60;99.90;;;;;;4997363;28;20038;-64
2023/08/20 03:51:56;;;;;;;16.42;10.77;;;16.60;99.90;;;;;;5006707;28;20106;-65
2023/08/20 03:54:22;;;;;;;16.65;10.35;;;16.60;99.90;;;;;;5000117;28;20149;-66
2023/08/20 03:56:47;;;;;;;16.27;10.50;;;16.60;99.90;;;;;;5003287;28;20088;-65
2023/08/20 03:59:13;;;;;;;21.15;10.88;;;16.60;99.90;;;;;;5005349;28;20065;-65
2023/08/20 04:01:39;;;;;;;20.35;12.40;;;16.60;99.90;;;;;;5002223;28;20217;-66
2023/08/20 04:04:04;;;;;;;17.67;11.25;;;16.60;99.90;;;;;;4995786;28;20041;-65
2023/08/20 04:06:30;;;;;;;17.88;11.57;;;16.60;99.90;;;;;;5013008;28;20108;-66
2023/08/20 04:08:56;;;;;;;17.83;11.50;;;16.60;99.90;;;;;;5005077;28;20069;-65
2023/08/20 04:11:21;;;;;;;19.42;12.90;;;16.50;99.90;;;;;;5012708;28;20488;-66
2023/08/20 04:13:47;;;;;;;20.08;11.55;;;16.60;99.90;;;;;;4999815;28;20045;-66
2023/08/20 04:16:13;;;;;;;18.88;12.23;;;16.50;99.90;;;;;;4997314;28;20092;-66
2023/08/20 04:18:39;;;;;;;16.65;11.52;;;16.50;99.90;;;;;;5006442;28;20073;-65
2023/08/20 04:21:05;;;;;;;17.35;11.75;;;16.50;99.90;;;;;;5013001;28;20065;-66
2023/08/20 04:23:31;;;;;;;20.00;10.65;;;16.50;99.90;;;;;;5001355;28;20030;-66
2023/08/20 04:25:57;;;;;;;15.23;11.45;;;16.50;99.90;;;;;;5008428;28;20128;-66
2023/08/20 04:28:22;;;;;;;16.77;10.60;;;16.40;99.90;;;;;;5003561;28;20392;-65
2023/08/20 04:30:49;;;;;;;16.95;11.15;;;16.40;99.90;;;;;;5005572;28;20207;-63
2023/08/20 04:33:14;;;;;;;16.55;11.32;;;16.40;99.90;;;;;;5006777;28;20495;-65
2023/08/20 04:35:40;;;;;;;16.08;11.20;;;16.40;99.90;;;;;;5010628;28;20033;-65
2023/08/20 04:38:06;;;;;;;17.35;11.20;;;16.40;99.90;;;;;;5009377;28;20204;-64
2023/08/20 04:40:33;;;;;;;20.35;11.25;;;16.40;99.90;;;;;;5012052;28;20045;-65
2023/08/20 04:42:59;;;;;;;17.40;10.65;;;16.40;99.90;;;;;;5012209;28;20042;-66
2023/08/20 04:45:24;;;;;;;15.30;11.02;;;16.40;99.90;;;;;;5001690;28;20415;-64
2023/08/20 04:47:50;;;;;;;17.75;11.98;;;16.50;99.90;;;;;;4994107;28;20140;-66
2023/08/20 04:50:15;;;;;;;17.17;11.18;;;16.40;99.90;;;;;;5000868;28;20452;-65
2023/08/20 04:52:41;;;;;;;17.20;10.65;;;16.40;99.90;;;;;;4996018;28;20542;-66
2023/08/20 04:55:08;;;;;;;17.08;10.68;;;16.40;99.90;;;;;;5002329;28;20037;-65
2023/08/20 04:57:34;;;;;;;15.32;10.77;;;16.50;99.90;;;;;;5002646;28;21126;-65
2023/08/20 04:59:59;;;;;;;16.75;10.73;;;16.40;99.90;;;;;;5005289;28;20038;-65
2023/08/20 05:02:25;;;;;;;18.25;11.75;;;16.40;99.90;;;;;;4996370;28;20034;-65
2023/08/20 05:04:51;;;;;;;15.63;10.80;;;16.40;99.90;;;;;;5009527;28;20411;-65
2023/08/20 05:07:17;;;;;;;16.08;10.75;;;16.40;99.90;;;;;;5004824;28;20045;-64
2023/08/20 05:09:43;;;;;;;15.15;10.00;;;16.30;99.90;;;;;;5006092;28;20034;-65
2023/08/20 05:12:09;;;;;;;13.35;9.88;;;16.30;99.90;;;;;;4995218;28;20459;-64
2023/08/20 05:14:35;;;;;;;15.80;9.73;;;16.30;99.90;;;;;;4995951;28;20034;-66
2023/08/20 05:17:00;;;;;;;14.88;9.68;;;16.30;99.90;;;;;;5012192;28;20038;-66
2023/08/20 05:19:26;;;;;;;17.65;9.90;;;16.30;99.90;;;;;;5001202;28;20089;-65
2023/08/20 05:21:55;;;;;;;16.10;9.82;;;16.40;99.90;;;;;;5006251;28;20045;-65
2023/08/20 05:24:22;;;;;;;15.40;9.77;;;16.40;99.90;;;;;;5003284;28;20289;-66
2023/08/20 05:27:09;;;;;;;14.98;9.23;;;16.30;99.90;;;;;;5006546;28;20065;-66
2023/08/20 05:29:36;;;;;;;15.13;9.02;;;16.30;99.90;;;;;;5004488;28;20469;-61
2023/08/20 05:32:02;;;;;;;18.30;9.90;;;16.30;99.90;;;;;;5010314;28;20044;-65
2023/08/20 05:34:28;;;;;;;14.52;9.90;;;16.30;99.90;;;;;;4999937;28;20030;-64
2023/08/20 05:36:54;;;;;;;12.15;9.10;;;16.30;99.90;;;;;;5008850;28;20096;-66
2023/08/20 05:39:19;;;;;;;12.93;10.18;;;16.20;99.90;;;;;;5008423;28;20030;-66
2023/08/20 05:41:45;;;;;;;12.52;9.45;;;16.30;99.90;;;;;;5003819;28;20041;-65
2023/08/20 05:44:11;;;;;;;15.15;10.13;;;16.40;99.90;;;;;;5006537;28;20496;-66
2023/08/20 05:46:36;;;;;;;14.27;9.38;;;16.30;99.90;;;;;;5006475;28;20046;-65
2023/08/20 05:49:02;;;;;;;14.98;9.73;;;16.30;99.90;;;;;;5003820;28;20041;-63
2023/08/20 05:51:28;;;;;;;14.50;10.15;;;16.30;99.90;;;;;;5001562;28;20038;-64
2023/08/20 05:53:53;;;;;;;17.05;10.00;;;16.40;99.90;;;;;;5003766;28;20534;-65
2023/08/20 05:56:19;;;;;;;16.42;10.15;;;16.40;99.90;;;;;;5005422;28;20042;-65
2023/08/20 05:58:45;;;;;;;19.00;10.38;;;16.40;99.90;;;;;;5001819;28;20042;-66
2023/08/20 06:01:11;;;;;;;17.08;10.05;;;16.40;99.90;;;;;;5009017;28;20041;-63
2023/08/20 06:03:37;;;;;;;13.82;9.52;;;16.50;99.90;;;;;;5009821;28;20088;-66
2023/08/20 06:06:02;;;;;;;16.42;10.60;;;16.50;99.90;;;;;;5006576;28;20041;-64
2023/08/20 06:08:28;;;;;;;12.98;9.55;;;16.60;99.90;;;;;;5003291;28;20126;-66
2023/08/20 06:10:54;;;;;;;16.85;10.60;;;16.50;99.90;;;;;;5009657;28;20577;-66
2023/08/20 06:13:19;;;;;;;16.98;10.68;;;16.60;99.90;;;;;;5010701;28;20060;-66
2023/08/20 06:15:45;;;;;;;16.40;9.40;;;16.60;99.90;;;;;;5001348;28;20034;-65
2023/08/20 06:18:11;;;;;;;15.45;8.80;;;16.70;99.90;;;;;;4997141;28;20412;-64
2023/08/20 06:20:37;;;;;;;15.48;9.65;;;16.70;99.90;;;;;;5009566;28;20034;-66
2023/08/20 06:23:03;;;;;;;16.08;9.65;;;16.70;99.90;;;;;;5003498;28;20128;-66
2023/08/20 06:25:28;;;;;;;16.95;9.93;;;16.80;99.90;;;;;;5050010;23;20073;-80
2023/08/20 06:27:54;;;;;;;15.30;9.35;;;16.80;99.90;;;;;;5015660;28;20057;-80
2023/08/20 06:30:20;;;;;;;19.27;9.60;;;17.00;99.90;;;;;;5017336;28;20132;-80
2023/08/20 06:32:45;;;;;;;16.38;8.85;;;16.90;99.90;;;;;;5017458;28;20470;-80
2023/08/20 06:35:11;;;;;;;17.17;9.10;;;16.90;99.90;;;;;;5015404;28;20091;-80
2023/08/20 06:37:39;;;;;;;18.25;9.02;;;17.00;99.90;;;;;;5014454;28;20044;-80
2023/08/20 06:40:05;;;;;;;19.70;9.05;;;17.00;99.90;;;;;;5013592;28;20041;-82
2023/08/20 06:42:31;;;;;;;13.27;8.23;;;17.10;99.90;;;;;;5030479;28;20060;-83
2023/08/20 06:44:57;;;;;;;18.77;9.02;;;17.10;99.90;;;;;;5010482;28;20041;-83
2023/08/20 06:47:22;;;;;;;16.63;8.85;;;17.10;99.90;;;;;;5013133;28;20053;-84
2023/08/20 06:49:49;;;;;;;14.98;8.77;;;17.20;99.90;;;;;;5018356;28;20045;-82
2023/08/20 06:52:14;;;;;;;14.85;8.05;;;17.20;99.90;;;;;;5011247;28;20107;-82
2023/08/20 06:54:40;;;;;;;17.05;8.85;;;17.30;99.90;;;;;;5012966;28;20476;-80
2023/08/20 06:57:06;;;;;;;14.35;7.80;;;17.30;99.90;;;;;;5013999;28;20052;-81
2023/08/20 06:59:31;;;;;;;17.02;8.15;;;17.40;99.90;;;;;;5006178;28;20116;-82
2023/08/20 07:01:57;;;;;;;16.35;7.97;;;17.40;99.90;;;;;;5020318;28;20033;-79
2023/08/20 07:04:22;;;;;;;15.90;7.82;;;17.50;99.90;;;;;;5016771;28;20068;-79
2023/08/20 07:06:48;;;;;;;18.27;7.63;;;17.50;99.90;;;;;;5015008;28;20041;-79
2023/08/20 07:09:14;;;;;;;15.52;7.20;;;17.60;99.90;;;;;;5016906;28;20037;-81
2023/08/20 07:11:39;;;;;;;16.77;7.72;;;17.70;99.90;;;;;;5001647;28;20084;-79
2023/08/20 07:14:05;;;;;;;12.95;7.47;;;17.70;99.90;;;;;;5002361;28;20064;-79
2023/08/20 07:16:31;;;;;;;17.75;8.23;;;17.80;99.90;;;;;;5016455;28;20033;-79
2023/08/20 07:18:57;;;;;;;14.35;6.78;;;17.80;99.90;;;;;;5017979;28;20128;-79
2023/08/20 07:21:23;;;;;;;15.75;6.70;;;17.90;99.90;;;;;;5018191;28;20072;-79
2023/08/20 07:23:48;;;;;;;14.30;7.15;;;17.90;99.90;;;;;;5019896;28;20044;-79
2023/08/20 07:26:14;;;;;;;16.65;7.05;;;18.00;99.90;;;;;;5019513;28;20049;-80
2023/08/20 07:28:59;;;;;;;14.15;6.45;;;18.00;99.90;;;;;;5018243;28;20033;-80
2023/08/20 07:31:33;;;;;;;17.30;7.80;;;18.10;99.90;;;;;;5030936;28;20037;-79
2023/08/20 07:34:00;;;;;;;15.85;7.35;;;18.10;99.90;;;;;;5017187;28;20037;-80
2023/08/20 07:36:26;;;;;;;20.48;7.43;;;18.20;99.90;;;;;;5012900;28;20053;-79
2023/08/20 07:38:55;;;;;;;17.65;6.88;;;18.20;99.90;;;;;;5033189;28;20500;-80
2023/08/20 07:41:21;;;;;;;15.32;6.75;;;18.30;99.90;;;;;;5033481;28;20405;-80
2023/08/20 07:43:48;;;;;;;15.23;6.22;;;18.30;99.90;;;;;;5018368;28;20068;-79
2023/08/20 07:46:15;;;;;;;13.48;6.32;;;18.40;99.90;;;;;;5036441;28;20094;-80
2023/08/20 07:48:40;;;;;;;14.82;6.10;;;18.40;99.90;;;;;;5034274;28;20041;-80
2023/08/20 07:51:06;;;;;;;13.73;6.15;;;18.50;99.90;;;;;;5018940;28;20561;-79
2023/08/20 07:53:33;;;;;;;16.75;5.95;;;18.60;99.90;;;;;;5042912;28;20038;-79
2023/08/20 07:55:59;;;;;;;16.70;4.90;;;18.60;99.90;;;;;;5023983;28;20053;-80
2023/08/20 07:58:25;;;;;;;15.60;5.10;;;18.70;99.90;;;;;;5016590;28;20456;-80
2023/08/20 08:00:51;;;;;;;10.43;4.57;;;18.70;99.90;;;;;;5019722;28;20038;-79
2023/08/20 08:03:17;;;;;;;14.88;5.43;;;18.80;99.90;;;;;;5017777;28;20034;-79
2023/08/20 08:05:48;;;;;;;18.15;5.30;;;18.80;99.90;;;;;;5023470;28;20068;-79
2023/08/20 08:08:16;;;;;;;14.48;5.18;;;18.90;99.90;;;;;;5011107;28;20073;-80
2023/08/20 08:10:44;;;;;;;13.85;5.30;;;18.90;99.90;;;;;;5020559;28;20493;-79
2023/08/20 08:13:10;;;;;;;15.50;5.22;;;19.00;99.90;;;;;;5010818;28;20402;-79
2023/08/20 08:15:35;;;;;;;15.13;5.28;;;19.00;99.90;;;;;;5015951;28;20033;-79
2023/08/20 08:18:01;;;;;;;14.55;5.68;;;19.10;99.90;;;;;;5016178;28;20048;-79
2023/08/20 08:20:27;;;;;;;12.25;5.75;;;19.10;99.90;;;;;;5015976;28;20038;-79
2023/08/20 08:22:52;;;;;;;15.55;5.60;;;19.20;99.90;;;;;;5038022;28;20041;-80
2023/08/20 08:25:19;;;;;;;15.15;5.40;;;19.30;99.90;;;;;;5003074;28;20436;-79
2023/08/20 08:27:45;;;;;;;16.40;4.85;;;19.30;99.90;;;;;;5011942;28;20052;-79
2023/08/20 08:30:11;;;;;;;14.05;4.45;;;19.40;99.90;;;;;;5042092;28;20033;-79
2023/08/20 08:32:37;;;;;;;18.73;4.80;;;19.50;99.90;;;;;;5026372;28;20048;-79
2023/08/20 08:35:03;;;;;;;15.82;4.72;;;19.50;99.90;;;;;;5021540;28;20052;-80
2023/08/20 08:37:28;;;;;;;15.32;5.35;;;19.60;99.90;;;;;;5040363;28;20041;-79
2023/08/20 08:39:54;;;;;;;15.27;4.07;;;19.80;99.90;;;;;;5021846;28;20069;-79
2023/08/20 08:42:23;;;;;;;13.50;3.60;;;19.90;99.90;;;;;;5015689;28;20087;-79
2023/08/20 08:44:50;;;;;;;11.80;4.25;;;20.10;99.90;;;;;;5014223;28;20045;-80
2023/08/20 08:47:18;;;;;;;11.20;3.55;;;20.40;99.90;;;;;;5008404;28;20061;-79
2023/08/20 08:49:45;;;;;;;13.90;3.35;;;20.60;99.90;;;;;;5030742;28;20121;-79
2023/08/20 08:52:11;;;;;;;;;;;20.80;99.90;;;;;;5020608;28;20033;-80
2023/08/20 08:54:37;;;;;;;;;;;21.10;99.90;;;;;;5006740;28;20297;-80
2023/08/20 08:57:02;;;;;;;;;;;21.30;99.90;;;;;;5010697;28;19921;-80
2023/08/20 08:59:28;;;;;;;;;;;21.40;99.90;;;;;;5002712;28;19967;-79
2023/08/20 09:01:54;;;;;;;;;;;21.60;99.90;;;;;;5006859;28;19917;-79
2023/08/20 09:04:19;;;;;;;;;;;21.90;99.90;;;;;;5022059;28;19921;-81
2023/08/20 09:06:49;;;;;;;;;;;22.00;99.90;;;;;;5025174;28;19923;-79
2023/08/20 09:09:17;;;;;;;;;;;22.10;99.90;;;;;;5027160;28;19924;-79
2023/08/20 09:11:42;;;;;;;;;;;22.30;99.90;;;;;;5044133;28;20731;-79
2023/08/20 09:14:08;;;;;;;;;;;22.60;99.90;;;;;;5009502;28;19917;-79
2023/08/20 09:16:33;;;;;;;;;;;22.70;99.90;;;;;;5024872;28;19916;-81
2023/08/20 09:19:00;;;;;;;8.10;2.63;;;22.80;99.90;;;;;;5022117;28;19917;-79
2023/08/20 09:21:32;;;;;;;8.52;2.38;;;23.00;99.90;;;;;;5020217;28;20524;-82
2023/08/20 09:24:00;;;;;;;9.35;2.97;;;23.10;99.90;;;;;;4999936;28;20044;-79
2023/08/20 09:26:26;;;;;;;8.00;2.00;;;23.20;99.90;;;;;;5018648;28;20053;-79
2023/08/20 09:28:56;;;;;;;6.55;2.60;;;23.30;99.90;;;;;;5015831;28;20045;-79
2023/08/20 09:31:39;;;;;;;7.43;2.40;;;23.40;99.90;;;;;;5008910;28;20047;-79
2023/08/20 09:34:05;;;;;;;7.80;2.70;;;23.60;99.90;;;;;;5011476;28;20116;-79
2023/08/20 09:36:34;;;;;;;7.60;2.70;;;23.80;99.90;;;;;;5033496;28;20052;-79
2023/08/20 09:39:04;;;;;;;9.73;2.47;;;23.90;99.90;;;;;;5011114;28;20113;-80
2023/08/20 09:41:31;;;;;;;4.82;2.00;;;24.10;99.90;;;;;;5012852;28;20026;-79
2023/08/20 09:44:01;;;;;;;6.82;2.35;;;24.30;99.90;;;;;;4997804;28;20444;-79
2023/08/20 09:46:31;;;;;;;6.70;2.10;;;24.40;99.90;;;;;;5021327;28;20087;-79
2023/08/20 09:48:57;;;;;;;8.57;2.67;;;24.70;99.90;;;;;;5027356;28;20053;-79
2023/08/20 09:51:30;;;;;;;9.30;2.58;;;24.80;99.90;;;;;;5035167;28;20065;-79
2023/08/20 09:54:02;;;;;;;8.93;2.28;;;25.00;99.90;;;;;;5018354;28;20116;-78
2023/08/20 09:56:30;;;;;;;8.02;2.22;;;25.20;99.90;;;;;;5017042;28;20033;-79
2023/08/20 09:58:57;;;;;;;7.32;2.40;;;25.40;99.90;;;;;;5027812;28;20036;-79
2023/08/20 10:01:24;;;;;;;7.50;2.83;;;25.40;99.90;;;;;;5022586;28;20096;-79
2023/08/20 10:03:50;;;;;;;7.95;2.65;;;25.50;99.90;;;;;;5014007;28;20152;-79
2023/08/20 10:06:17;;;;;;;8.27;2.55;;;25.60;99.90;;;;;;5021872;28;20057;-79
2023/08/20 10:08:43;;;;;;;9.18;2.63;;;25.60;99.90;;;;;;5020410;28;20056;-79
2023/08/20 10:11:09;;;;;;;13.40;2.88;;;25.60;99.90;;;;;;5014139;28;20060;-79
2023/08/20 10:13:34;;;;;;;7.68;3.00;;;25.60;99.90;;;;;;5008062;28;20551;-79
2023/08/20 10:16:00;;;;;;;9.98;3.05;;;25.60;99.90;;;;;;5013727;28;20046;-79
2023/08/20 10:18:26;;;;;;;9.95;3.30;;;25.70;99.90;;;;;;5021410;28;20052;-79
2023/08/20 10:20:52;;;;;;;11.50;2.83;;;25.80;99.90;;;;;;5014336;28;20042;-79
2023/08/20 10:23:23;;;;;;;9.43;2.58;;;25.80;99.90;;;;;;5017503;28;20045;-79
2023/08/20 10:25:48;;;;;;;8.85;2.63;;;26.00;99.90;;;;;;5017949;28;20512;-79
2023/08/20 10:28:20;;;;;;;6.50;2.17;;;26.20;99.90;;;;;;5001954;28;20042;-80
2023/08/20 10:31:06;;;;;;;;;;;26.50;99.90;;;;;;5005335;28;20044;-79
2023/08/20 10:33:36;;;;;;;4.68;2.15;;;26.70;99.90;;;;;;5023236;28;19924;-79
2023/08/20 10:36:15;;;;;;;6.72;2.30;;;26.90;99.90;;;;;;5028631;28;20051;-79
2023/08/20 10:38:41;;;;;;;7.38;2.47;;;26.90;99.90;;;;;;5009723;28;20041;-79
2023/08/20 10:41:08;;;;;;;11.15;2.75;;;26.80;99.90;;;;;;5022272;28;20037;-79
2023/08/20 10:43:39;;;;;;;6.07;2.05;;;26.70;99.90;;;;;;5033089;28;20485;-79
2023/08/20 10:46:25;;;;;;;8.40;2.33;;;26.70;99.90;;;;;;5018255;28;20045;-79
2023/08/20 10:49:02;;;;;;;5.53;2.00;;;26.70;99.90;;;;;;5027907;28;20045;-79
2023/08/20 10:51:33;;;;;;;5.50;2.08;;;26.70;99.90;;;;;;5014971;28;20079;-79
2023/08/20 10:54:06;;;;;;;7.35;1.70;;;26.80;99.90;;;;;;5013026;28;20044;-79
2023/08/20 10:56:57;;;;;;;6.50;2.00;;;27.00;99.90;;;;;;5013671;28;20048;-79
2023/08/20 10:59:32;;;;;;;7.53;2.28;;;27.20;99.70;;;;;;5013579;28;20045;-79
2023/08/20 11:01:59;;;;;;;6.97;1.90;;;27.20;99.20;;;;;;5016908;28;20040;-79
2023/08/20 11:04:28;;;;;;;6.55;2.03;;;27.30;98.70;;;;;;5013346;28;20037;-79
2023/08/20 11:06:56;;;;;;;6.38;1.88;;;27.30;98.40;;;;;;5013163;28;20045;-79
2023/08/20 11:09:23;;;;;;;5.35;1.80;;;27.10;98.10;;;;;;5022319;28;20041;-79
2023/08/20 11:11:49;;;;;;;8.98;2.20;;;27.10;97.80;;;;;;5037463;28;20033;-79
2023/08/20 11:14:17;;;;;;;4.50;1.63;;;27.00;97.60;;;;;;5015207;28;20041;-79
2023/08/20 11:16:44;;;;;;;4.00;1.63;;;27.10;98.00;;;;;;5010138;28;20132;-80
2023/08/20 11:19:10;;;;;;;5.10;1.80;;;27.20;97.50;;;;;;5021344;28;20037;-79
2023/08/20 11:21:40;;;;;;;6.38;1.77;;;27.30;97.50;;;;;;5017042;28;20048;-79
2023/08/20 11:24:06;;;;;;;7.35;1.67;;;27.40;97.30;;;;;;5013022;28;20103;-79
2023/08/20 11:26:34;;;;;;;5.40;1.90;;;27.40;96.90;;;;;;5013412;28;20033;-82
2023/08/20 11:29:00;;;;;;;7.88;2.08;;;27.50;96.30;;;;;;5014587;28;20041;-79
2023/08/20 11:31:26;;;;;;;6.75;2.03;;;27.50;96.50;;;;;;5016506;28;20064;-79
2023/08/20 11:33:52;;;;;;;6.05;1.83;;;27.50;96.50;;;;;;5013324;28;20085;-79
2023/08/20 11:36:20;;;;;;;5.28;1.70;;;27.40;95.50;;;;;;5014571;28;20421;-79
2023/08/20 11:38:53;;;;;;;4.93;1.73;;;27.30;95.20;;;;;;5016654;28;20390;-80
2023/08/20 11:41:20;;;;;;;4.53;1.40;;;27.40;95.60;;;;;;5013202;28;20448;-79
2023/08/20 11:43:47;;;;;;;6.35;1.85;;;27.40;95.40;;;;;;5033096;28;20083;-80
2023/08/20 11:46:17;;;;;;;4.72;1.55;;;27.40;95.10;;;;;;5014569;28;20052;-79
2023/08/20 11:49:03;;;;;;;4.35;1.60;;;27.50;95.40;;;;;;5016086;28;20055;-79
2023/08/20 11:51:36;;;;;;;4.85;1.70;;;27.60;94.70;;;;;;5015930;28;20127;-79
2023/08/20 11:54:03;;;;;;;3.42;1.42;;;27.70;94.70;;;;;;5015565;28;20049;-80
2023/08/20 11:56:29;;;;;;;4.78;1.60;;;27.70;94.80;;;;;;5018503;28;20041;-79
2023/08/20 11:58:59;;;;;;;5.05;1.50;;;27.80;94.30;;;;;;5030020;28;20055;-79
2023/08/20 12:01:25;;;;;;;6.15;2.03;;;28.00;95.30;;;;;;5016278;28;20049;-79
2023/08/20 12:03:51;;;;;;;6.40;1.88;;;28.10;95.50;;;;;;5013004;28;20036;-79
2023/08/20 12:06:20;;;;;;;6.22;1.90;;;28.00;95.30;;;;;;5015014;28;20045;-80
2023/08/20 12:08:46;;;;;;;4.95;1.70;;;28.00;95.20;;;;;;5000093;28;20262;-79
2023/08/20 12:11:12;;;;;;;6.13;1.60;;;28.20;95.10;;;;;;5015967;28;20034;-79
2023/08/20 12:13:38;;;;;;;6.43;2.15;;;28.30;94.50;;;;;;5020236;28;20095;-79
2023/08/20 12:16:04;;;;;;;5.82;1.80;;;28.40;94.30;;;;;;5016899;28;20037;-79
2023/08/20 12:18:29;;;;;;;5.65;1.75;;;28.30;94.20;;;;;;5010832;28;20553;-79
2023/08/20 12:20:55;;;;;;;5.43;1.70;;;28.20;94.30;;;;;;5025204;28;20155;-79
2023/08/20 12:23:21;;;;;;;4.40;1.70;;;28.30;94.10;;;;;;5016719;28;20489;-79
2023/08/20 12:25:51;;;;;;;6.93;1.50;;;28.30;94.10;;;;;;5024318;22;20069;-77
2023/08/20 12:28:22;;;;;;;6.72;1.77;;;28.50;93.90;;;;;;4964581;28;20053;-77
2023/08/20 12:30:59;;;;;;;7.90;2.25;;;28.60;93.60;;;;;;4997761;28;20046;-77
2023/08/20 12:33:27;;;;;;;5.65;1.70;;;28.70;93.30;;;;;;4977140;28;20089;-77
2023/08/20 12:36:12;;;;;;;5.82;1.73;;;28.80;92.60;;;;;;4981289;28;20038;-77
2023/08/20 12:39:16;;;;;;;7.07;1.77;;;28.70;91.70;;;;;;5005315;28;20041;-77
2023/08/20 12:42:03;;;;;;;5.57;1.85;;;28.50;92.70;;;;;;5003736;28;20035;-77